Time;durP1;ratioP1;P1;durP2;ratioP2;P2;SDS_P1;SDS_P2;PMS_P1;PMS_P2;Temp;Humidity;BMP_temperature;BMP_pressure;BME280_temperature;BME280_humidity;BME280_pressure;Samples;Min_cycle;Max_cycle;Signal;HPM_P1;HPM_P2
2023/10/29 00:00:58;;;;;;;12.75;6.30;;;;;;;2.81;100.00;98060.03;5138043;28;20409;-65
2023/10/29 00:03:24;;;;;;;9.93;6.13;;;;;;;2.76;100.00;98035.91;5138069;28;20051;-65
2023/10/29 00:05:51;;;;;;;12.00;6.22;;;;;;;2.62;100.00;98064.47;5137663;28;20055;-65
2023/10/29 00:08:17;;;;;;;10.07;6.15;;;;;;;2.45;100.00;98092.53;5137570;28;20059;-65
2023/10/29 00:10:43;;;;;;;11.98;6.65;;;;;;;2.59;100.00;98133.56;5137433;28;20119;-65
2023/10/29 00:13:09;;;;;;;13.80;7.43;;;;;;;2.58;100.00;98135.47;5137672;28;20043;-65
2023/10/29 00:15:35;;;;;;;10.77;6.22;;;;;;;2.69;100.00;98119.59;5137480;28;20130;-65
2023/10/29 00:18:01;;;;;;;10.93;6.13;;;;;;;2.64;100.00;98127.94;5137677;28;20051;-65
2023/10/29 00:20:27;;;;;;;11.63;7.18;;;;;;;2.46;100.00;98176.03;5137358;28;20054;-65
2023/10/29 00:22:53;;;;;;;8.50;5.70;;;;;;;2.58;100.00;98208.53;5137689;28;20354;-65
2023/10/29 00:25:20;;;;;;;11.15;6.57;;;;;;;2.80;100.00;98184.91;5137227;28;20134;-65
2023/10/29 00:27:46;;;;;;;11.30;6.30;;;;;;;2.81;100.00;98138.53;5137690;28;20051;-65
2023/10/29 00:30:12;;;;;;;12.57;7.13;;;;;;;2.72;100.00;98088.34;5137052;28;20469;-66
2023/10/29 00:32:38;;;;;;;9.38;6.95;;;;;;;2.77;100.00;98074.63;5137518;28;20440;-65
2023/10/29 00:35:05;;;;;;;10.75;6.90;;;;;;;2.65;100.00;98069.19;5137282;28;20051;-65
2023/10/29 00:37:31;;;;;;;8.38;6.07;;;;;;;2.91;100.00;98066.13;5137048;28;20456;-65
2023/10/29 00:39:58;;;;;;;11.13;6.45;;;;;;;2.91;100.00;98042.56;5137332;28;20051;-65
2023/10/29 00:42:24;;;;;;;12.73;6.63;;;;;;;2.68;100.00;98042.25;5136845;28;20142;-64
2023/10/29 00:44:50;;;;;;;13.68;7.82;;;;;;;2.73;100.00;98050.16;5137348;28;20047;-65
2023/10/29 00:47:16;;;;;;;14.40;8.13;;;;;;;2.73;100.00;98050.16;5137019;28;20126;-64
2023/10/29 00:49:42;;;;;;;11.18;6.82;;;;;;;2.81;100.00;98048.44;5137137;28;20138;-65
2023/10/29 00:52:08;;;;;;;11.95;7.32;;;;;;;2.85;100.00;98059.38;5136897;28;20055;-65
2023/10/29 00:54:34;;;;;;;13.60;7.93;;;;;;;2.76;100.00;98057.56;5137210;28;20427;-65
2023/10/29 00:57:01;;;;;;;12.35;7.22;;;;;;;2.73;100.00;98070.97;5136830;28;20053;-65
2023/10/29 00:59:30;;;;;;;13.65;7.40;;;;;;;2.71;100.00;98103.81;5138555;27;20065;-65
2023/10/29 01:01:56;;;;;;;12.95;7.45;;;;;;;2.89;100.00;98146.88;5140398;28;20133;-65
2023/10/29 01:04:22;;;;;;;13.43;8.10;;;;;;;2.95;100.00;98137.41;5140597;28;20146;-64
2023/10/29 01:06:49;;;;;;;13.23;7.07;;;;;;;2.96;100.00;98141.69;5140661;28;20321;-64
2023/10/29 01:09:15;;;;;;;13.88;6.75;;;;;;;2.86;100.00;98099.63;5140129;28;20047;-65
2023/10/29 01:11:41;;;;;;;17.45;7.63;;;;;;;2.79;100.00;98083.94;5140550;28;20107;-64
2023/10/29 01:14:08;;;;;;;10.90;6.95;;;;;;;2.89;100.00;98084.63;5140088;28;20062;-64
2023/10/29 01:16:34;;;;;;;10.82;5.65;;;;;;;2.50;100.00;98017.34;5140427;28;20365;-64
2023/10/29 01:19:00;;;;;;;14.05;6.80;;;;;;;2.73;100.00;98009.56;5140234;28;20086;-65
2023/10/29 01:21:28;;;;;;;8.68;5.63;;;;;;;2.79;100.00;97916.13;5140389;28;20043;-64
2023/10/29 01:23:54;;;;;;;10.68;6.22;;;;;;;2.75;100.00;97861.13;5139965;28;20047;-65
2023/10/29 01:26:20;;;;;;;7.38;5.45;;;;;;;2.80;100.00;97843.88;5140551;28;20158;-64
2023/10/29 01:28:46;;;;;;;9.73;6.05;;;;;;;2.64;100.00;97827.59;5139902;28;20139;-65
2023/10/29 01:31:12;;;;;;;6.65;4.30;;;;;;;2.72;100.00;97836.69;5140362;28;20313;-65
2023/10/29 01:33:39;;;;;;;8.57;5.75;;;;;;;2.59;100.00;97788.03;5139934;28;20051;-65
2023/10/29 01:36:05;;;;;;;8.35;5.35;;;;;;;2.57;100.00;97754.34;5140099;28;20389;-64
2023/10/29 01:38:32;;;;;;;10.88;5.72;;;;;;;2.55;100.00;97722.22;5140163;28;20107;-65
2023/10/29 01:40:58;;;;;;;9.85;5.68;;;;;;;2.44;100.00;97723.09;5139903;28;20066;-64
2023/10/29 01:43:24;;;;;;;11.90;5.85;;;;;;;2.29;100.00;97757.84;5139890;28;20050;-64
2023/10/29 01:45:50;;;;;;;10.52;5.30;;;;;;;2.43;100.00;97732.31;5139838;28;20051;-65
2023/10/29 01:48:17;;;;;;;8.32;5.57;;;;;;;2.65;100.00;97712.81;5139940;28;20492;-65
2023/10/29 01:50:43;;;;;;;8.25;5.93;;;;;;;2.58;100.00;97696.41;5139499;28;20068;-65
2023/10/29 01:53:09;;;;;;;8.00;5.32;;;;;;;2.44;100.00;97675.19;5139979;28;20409;-65
2023/10/29 01:55:36;;;;;;;7.85;5.95;;;;;;;2.35;100.00;97694.25;5139536;28;20074;-64
2023/10/29 01:58:02;;;;;;;10.85;5.80;;;;;;;2.40;100.00;97687.84;5140044;28;20043;-65
2023/10/29 02:00:28;;;;;;;9.65;5.80;;;;;;;2.42;100.00;97690.16;5139386;28;20058;-65
2023/10/29 02:02:54;;;;;;;8.40;5.20;;;;;;;2.47;100.00;97687.22;5139621;28;20086;-65
2023/10/29 02:05:21;;;;;;;10.30;5.90;;;;;;;2.30;100.00;97669.38;5139716;28;20114;-65
2023/10/29 02:07:47;;;;;;;10.52;6.22;;;;;;;2.30;100.00;97726.16;5139468;28;20047;-65
2023/10/29 02:10:13;;;;;;;12.00;6.00;;;;;;;2.30;100.00;97716.16;5139538;27;20066;-64
2023/10/29 02:12:39;;;;;;;10.60;6.32;;;;;;;2.38;100.00;97730.66;5139397;28;20414;-65
2023/10/29 02:15:06;;;;;;;10.00;5.68;;;;;;;2.50;100.00;97738.72;5139647;28;20509;-65
2023/10/29 02:17:32;;;;;;;7.95;4.90;;;;;;;2.55;100.00;97729.56;5139318;28;20134;-65
2023/10/29 02:19:58;;;;;;;7.55;5.70;;;;;;;2.38;100.00;97686.59;5139578;28;20051;-64
2023/10/29 02:22:24;;;;;;;10.13;6.30;;;;;;;2.46;100.00;97694.53;5139148;28;20073;-65
2023/10/29 02:24:50;;;;;;;7.80;5.53;;;;;;;2.08;100.00;97724.81;5139586;28;20055;-65
2023/10/29 02:27:17;;;;;;;7.82;5.43;;;;;;;2.35;100.00;97767.28;5138977;28;20145;-65
2023/10/29 02:29:43;;;;;;;7.63;5.28;;;;;;;2.13;100.00;97748.88;5138779;28;20389;-65
2023/10/29 02:32:09;;;;;;;9.30;6.30;;;;;;;2.04;100.00;97773.38;5139069;28;20057;-64
2023/10/29 02:34:35;;;;;;;9.10;6.00;;;;;;;2.19;100.00;97790.78;5139326;28;20073;-65
2023/10/29 02:37:01;;;;;;;10.50;6.45;;;;;;;2.24;100.00;97765.44;5139372;28;20468;-64
2023/10/29 02:39:28;;;;;;;10.35;6.50;;;;;;;2.23;100.00;97764.66;5139024;28;20061;-65
2023/10/29 02:41:54;;;;;;;9.80;6.15;;;;;;;2.35;100.00;97780.03;5139120;28;20047;-64
2023/10/29 02:44:20;;;;;;;9.98;6.35;;;;;;;2.34;100.00;97781.94;5139153;28;20057;-65
2023/10/29 02:46:46;;;;;;;13.85;7.53;;;;;;;2.15;100.00;97778.28;5139129;28;20397;-65
2023/10/29 02:49:11;;;;;;;12.20;6.97;;;;;;;2.25;100.00;97837.28;5138735;28;20142;-64
2023/10/29 02:51:37;;;;;;;10.43;6.95;;;;;;;2.29;100.00;97887.63;5139071;28;20456;-65
2023/10/29 02:54:04;;;;;;;11.07;6.55;;;;;;;1.95;100.00;97902.44;5138732;28;20095;-64
2023/10/29 02:56:31;;;;;;;11.00;7.35;;;;;;;1.57;100.00;97932.50;5139064;28;20410;-64
2023/10/29 02:58:57;;;;;;;10.85;7.60;;;;;;;1.98;100.00;97995.59;5138482;28;20062;-64
2023/10/29 03:01:23;;;;;;;12.18;7.55;;;;;;;1.88;100.00;98002.22;5138493;28;20050;-64
2023/10/29 03:03:49;;;;;;;11.18;6.70;;;;;;;1.95;100.00;98026.78;5138768;28;20146;-65
2023/10/29 03:06:15;;;;;;;11.57;7.78;;;;;;;2.06;100.00;98035.22;5138663;28;20047;-65
2023/10/29 03:08:41;;;;;;;11.35;6.68;;;;;;;1.87;100.00;98063.59;5138504;28;20561;-65
2023/10/29 03:11:07;;;;;;;12.10;7.07;;;;;;;2.10;100.00;98088.31;5138333;28;20066;-65
2023/10/29 03:13:34;;;;;;;14.52;7.45;;;;;;;1.88;100.00;98078.69;5138520;28;20404;-65
2023/10/29 03:16:00;;;;;;;9.75;6.72;;;;;;;1.96;100.00;98065.41;5138440;28;20144;-65
2023/10/29 03:18:26;;;;;;;11.00;6.13;;;;;;;2.06;100.00;98011.69;5138672;28;20199;-65
2023/10/29 03:20:52;;;;;;;12.35;6.95;;;;;;;2.19;100.00;97990.84;5138308;28;20050;-65
2023/10/29 03:23:18;;;;;;;11.95;7.45;;;;;;;2.25;100.00;97969.81;5138029;27;20091;-65
2023/10/29 03:25:44;;;;;;;16.83;8.13;;;;;;;2.30;100.00;97964.97;5138148;28;20047;-64
2023/10/29 03:28:10;;;;;;;11.60;7.35;;;;;;;2.43;100.00;97919.72;5138494;28;20461;-65
2023/10/29 03:30:37;;;;;;;11.80;7.57;;;;;;;2.33;100.00;97902.06;5138191;28;20043;-64
2023/10/29 03:33:03;;;;;;;11.82;7.72;;;;;;;2.15;100.00;97922.38;5138292;28;20306;-65
2023/10/29 03:35:29;;;;;;;12.75;6.75;;;;;;;2.35;100.00;97929.56;5138168;28;20058;-64
2023/10/29 03:37:54;;;;;;;10.30;6.88;;;;;;;2.16;100.00;97913.13;5137895;28;20051;-64
2023/10/29 03:40:20;;;;;;;14.57;7.32;;;;;;;2.38;100.00;97938.91;5138199;28;20115;-65
2023/10/29 03:42:46;;;;;;;11.60;7.07;;;;;;;2.31;100.00;97890.03;5138016;28;20047;-65
2023/10/29 03:45:12;;;;;;;11.05;7.00;;;;;;;2.48;100.00;97880.84;5138203;28;20123;-65
2023/10/29 03:47:41;;;;;;;10.00;6.82;;;;;;;2.42;100.00;97868.69;5137856;28;20119;-65
2023/10/29 03:50:08;;;;;;;9.88;6.70;;;;;;;2.57;100.00;97874.16;5138078;28;20082;-64
2023/10/29 03:52:34;;;;;;;11.70;7.10;;;;;;;2.45;100.00;97836.34;5137724;28;20043;-64
2023/10/29 03:55:00;;;;;;;11.43;6.80;;;;;;;1.99;100.00;97807.94;5138184;28;20093;-65
2023/10/29 03:57:26;;;;;;;16.95;6.68;;;;;;;2.32;100.00;97821.28;5137593;28;20047;-65
2023/10/29 03:59:52;;;;;;;8.77;5.97;;;;;;;2.42;100.00;97809.19;5137506;28;20432;-65
2023/10/29 04:02:18;;;;;;;11.48;6.57;;;;;;;2.26;100.00;97777.44;5137585;28;20137;-65
2023/10/29 04:04:45;;;;;;;8.93;6.55;;;;;;;2.19;100.00;97788.06;5137447;28;20062;-65
2023/10/29 04:07:11;;;;;;;10.40;6.60;;;;;;;2.27;100.00;97780.97;5137551;28;20389;-65
2023/10/29 04:09:37;;;;;;;11.23;6.50;;;;;;;2.30;100.00;97781.06;5137492;28;20127;-65
2023/10/29 04:12:05;;;;;;;10.90;7.03;;;;;;;2.23;100.00;97777.34;5137740;28;20092;-65
2023/10/29 04:14:31;;;;;;;9.75;6.57;;;;;;;2.45;100.00;97813.91;5137446;28;20051;-65
2023/10/29 04:16:57;;;;;;;8.50;6.07;;;;;;;2.30;100.00;97780.25;5137762;28;20384;-65
2023/10/29 04:19:23;;;;;;;8.63;5.85;;;;;;;2.48;100.00;97780.75;5137281;28;20345;-65
2023/10/29 04:21:49;;;;;;;9.75;6.00;;;;;;;2.40;100.00;97744.63;5137730;28;20484;-65
2023/10/29 04:24:16;;;;;;;8.95;5.88;;;;;;;2.48;100.00;97716.63;5137224;28;20382;-65
2023/10/29 04:26:43;;;;;;;9.20;5.40;;;;;;;2.50;100.00;97697.31;5137657;28;20432;-65
2023/10/29 04:29:09;;;;;;;6.93;5.30;;;;;;;2.33;100.00;97664.09;5137336;28;20321;-65
2023/10/29 04:31:35;;;;;;;8.02;6.20;;;;;;;2.08;100.00;97665.34;5137367;28;20054;-65
2023/10/29 04:34:00;;;;;;;9.27;6.18;;;;;;;1.97;100.00;97670.47;5138059;27;20329;-64
2023/10/29 04:36:26;;;;;;;7.45;5.43;;;;;;;2.22;100.00;97694.66;5140960;28;20054;-64
2023/10/29 04:38:53;;;;;;;8.38;5.80;;;;;;;2.29;100.00;97668.59;5141133;28;20190;-65
2023/10/29 04:41:19;;;;;;;8.10;5.13;;;;;;;2.24;100.00;97659.97;5140811;28;20138;-64
2023/10/29 04:43:45;;;;;;;7.15;5.47;;;;;;;2.24;100.00;97722.16;5140963;28;20066;-64
2023/10/29 04:46:12;;;;;;;7.38;5.20;;;;;;;2.18;100.00;97748.66;5140656;28;20080;-65
2023/10/29 04:48:39;;;;;;;8.57;5.80;;;;;;;2.21;100.00;97755.28;5141105;28;20047;-65
2023/10/29 04:51:06;;;;;;;8.43;5.35;;;;;;;2.27;100.00;97730.38;5140479;28;20141;-64
2023/10/29 04:53:32;;;;;;;7.03;4.72;;;;;;;2.24;100.00;97714.06;5140997;28;20047;-64
2023/10/29 04:55:59;;;;;;;10.45;6.15;;;;;;;1.96;100.00;97730.25;5140373;28;20053;-65
2023/10/29 04:58:25;;;;;;;9.38;6.07;;;;;;;2.21;100.00;97723.63;5140384;28;20046;-64
2023/10/29 05:00:52;;;;;;;9.20;5.68;;;;;;;2.19;100.00;97731.28;5140690;28;20047;-65
2023/10/29 05:03:17;;;;;;;10.32;6.05;;;;;;;2.29;100.00;97727.31;5140589;28;20146;-65
2023/10/29 05:05:43;;;;;;;9.73;5.85;;;;;;;2.27;100.00;97729.59;5140687;28;20137;-65
2023/10/29 05:08:09;;;;;;;11.45;6.30;;;;;;;2.34;100.00;97718.97;5140262;28;20424;-64
2023/10/29 05:10:35;;;;;;;10.77;6.35;;;;;;;2.22;100.00;97714.38;5140552;28;20096;-65
2023/10/29 05:13:02;;;;;;;10.40;6.18;;;;;;;2.38;100.00;97716.34;5140339;28;20061;-65
2023/10/29 05:15:28;;;;;;;11.60;6.25;;;;;;;2.13;100.00;97678.59;5140651;28;20047;-64
2023/10/29 05:17:54;;;;;;;8.73;6.15;;;;;;;2.13;100.00;97675.88;5140221;28;20043;-64
2023/10/29 05:20:20;;;;;;;9.10;5.47;;;;;;;2.31;100.00;97696.09;5140576;28;20503;-64
2023/10/29 05:22:46;;;;;;;11.93;6.05;;;;;;;2.36;100.00;97686.94;5140041;28;20043;-64
2023/10/29 05:25:12;;;;;;;10.70;5.40;;;;;;;2.22;100.00;97686.56;5140503;28;20142;-65
2023/10/29 05:27:38;;;;;;;10.73;5.93;;;;;;;2.14;100.00;97712.63;5140225;28;20406;-65
2023/10/29 05:30:07;;;;;;;9.60;6.32;;;;;;;2.24;100.00;97749.19;5140136;28;20043;-65
2023/10/29 05:32:33;;;;;;;9.57;5.80;;;;;;;2.18;100.00;97737.84;5140316;28;20287;-65
2023/10/29 05:34:59;;;;;;;9.65;5.70;;;;;;;2.03;100.00;97715.03;5140161;28;20393;-65
2023/10/29 05:37:25;;;;;;;10.00;5.45;;;;;;;2.13;100.00;97719.16;5140164;28;20047;-65
2023/10/29 05:39:52;;;;;;;11.25;6.18;;;;;;;2.17;100.00;97714.66;5139998;28;20055;-65
2023/10/29 05:42:17;;;;;;;10.18;5.40;;;;;;;2.05;100.00;97726.28;5140168;28;20047;-65
2023/10/29 05:44:43;;;;;;;11.27;6.15;;;;;;;2.23;100.00;97726.78;5139351;27;20497;-64
2023/10/29 05:47:10;;;;;;;8.07;5.68;;;;;;;2.33;100.00;97698.44;5140084;28;20047;-65
2023/10/29 05:49:36;;;;;;;10.57;6.05;;;;;;;2.34;100.00;97702.72;5139486;28;20089;-65
2023/10/29 05:52:02;;;;;;;8.82;6.05;;;;;;;2.47;100.00;97700.75;5140032;28;20142;-65
2023/10/29 05:54:28;;;;;;;10.90;6.65;;;;;;;2.20;100.00;97740.19;5139287;28;20436;-65
2023/10/29 05:56:54;;;;;;;11.02;6.07;;;;;;;2.32;100.00;97748.25;5139448;28;20401;-64
2023/10/29 05:59:20;;;;;;;11.43;5.65;;;;;;;2.31;100.00;97742.06;5139394;28;20093;-65
2023/10/29 06:01:46;;;;;;;8.35;5.28;;;;;;;2.24;100.00;97736.47;5139474;28;20047;-64
2023/10/29 06:04:13;;;;;;;8.77;5.57;;;;;;;2.41;100.00;97729.19;5139498;28;20043;-65
2023/10/29 06:06:39;;;;;;;11.02;6.55;;;;;;;2.23;100.00;97720.56;5139582;28;20138;-64
2023/10/29 06:09:05;;;;;;;12.98;6.28;;;;;;;2.17;100.00;97749.78;5139520;28;20055;-64
2023/10/29 06:11:31;;;;;;;10.07;5.47;;;;;;;2.31;100.00;97739.34;5139309;28;20050;-65
2023/10/29 06:13:57;;;;;;;10.10;6.20;;;;;;;2.45;100.00;97749.00;5139640;28;20405;-64
2023/10/29 06:16:23;;;;;;;11.55;6.43;;;;;;;2.51;100.00;97736.78;5139166;28;20380;-65
2023/10/29 06:18:49;;;;;;;12.63;6.25;;;;;;;2.26;100.00;97753.13;5139649;28;20400;-65
2023/10/29 06:21:18;;;;;;;10.63;5.70;;;;;;;2.38;100.00;97781.25;5139062;28;20107;-65
2023/10/29 06:23:44;;;;;;;9.02;5.63;;;;;;;2.35;100.00;97807.06;5139569;28;20127;-65
2023/10/29 06:26:10;;;;;;;9.95;5.63;;;;;;;1.93;100.00;97804.69;5139346;28;20448;-64
2023/10/29 06:28:35;;;;;;;10.32;5.50;;;;;;;1.85;100.00;97849.63;5139278;28;20055;-65
2023/10/29 06:31:02;;;;;;;8.95;5.93;;;;;;;1.91;100.00;97963.72;5139247;28;20054;-65
2023/10/29 06:33:27;;;;;;;10.23;5.90;;;;;;;1.75;100.00;98020.31;5138900;28;20074;-66
2023/10/29 06:35:57;;;;;;;12.05;5.95;;;;;;;2.18;100.00;98100.16;5139231;28;20135;-64
2023/10/29 06:38:24;;;;;;;13.20;6.40;;;;;;;2.00;100.00;98069.00;5138969;28;20066;-65
2023/10/29 06:40:50;;;;;;;10.23;6.05;;;;;;;1.72;100.00;98115.56;5139177;28;20054;-65
2023/10/29 06:43:16;;;;;;;10.57;5.75;;;;;;;1.67;100.00;98112.25;5138925;28;20043;-65
2023/10/29 06:45:41;;;;;;;8.23;5.20;;;;;;;1.95;100.00;98109.78;5139267;28;20047;-66
2023/10/29 06:48:07;;;;;;;10.73;5.35;;;;;;;2.04;100.00;98043.69;5138715;28;20428;-65
2023/10/29 06:50:35;;;;;;;8.63;4.70;;;;;;;2.23;100.00;97997.19;5138559;28;20146;-65
2023/10/29 06:53:01;;;;;;;10.68;5.53;;;;;;;2.07;100.00;97921.38;5138559;28;20047;-65
2023/10/29 06:55:28;;;;;;;11.02;5.38;;;;;;;2.26;100.00;97915.38;5138782;28;20386;-64
2023/10/29 06:57:54;;;;;;;11.30;6.13;;;;;;;2.37;100.00;97891.38;5137824;27;20058;-64
2023/10/29 07:00:20;;;;;;;10.25;6.28;;;;;;;2.40;100.00;97857.41;5138611;28;20082;-64
2023/10/29 07:02:46;;;;;;;10.38;5.30;;;;;;;2.52;100.00;97857.38;5138469;28;20389;-65
2023/10/29 07:05:12;;;;;;;10.18;6.15;;;;;;;2.59;100.00;97831.31;5138347;28;20046;-64
2023/10/29 07:07:39;;;;;;;10.43;5.78;;;;;;;2.49;100.00;97780.41;5138641;28;20111;-64
2023/10/29 07:10:06;;;;;;;7.43;5.28;;;;;;;2.57;100.00;97765.16;5138401;28;20055;-65
2023/10/29 07:12:33;;;;;;;9.10;5.32;;;;;;;2.43;100.00;97795.31;5138548;28;20130;-64
2023/10/29 07:14:59;;;;;;;9.93;5.25;;;;;;;2.65;100.00;97790.50;5138336;28;20402;-65
2023/10/29 07:17:25;;;;;;;12.98;5.90;;;;;;;2.48;100.00;97775.34;5138695;28;20079;-65
2023/10/29 07:19:52;;;;;;;11.02;5.93;;;;;;;2.35;100.00;97809.78;5138284;28;20105;-65
2023/10/29 07:22:18;;;;;;;9.15;6.28;;;;;;;2.31;100.00;97874.56;5138593;28;20492;-64
2023/10/29 07:24:44;;;;;;;13.57;6.97;;;;;;;2.28;100.00;97966.41;5138393;28;20138;-64
2023/10/29 07:27:10;;;;;;;10.15;5.88;;;;;;;2.49;100.00;98023.09;5138302;28;20078;-65
2023/10/29 07:29:37;;;;;;;13.60;6.18;;;;;;;2.41;100.00;98013.19;5138471;28;20424;-65
2023/10/29 07:32:03;;;;;;;13.38;7.05;;;;;;;2.32;100.00;98037.63;5138200;28;20059;-64
2023/10/29 07:34:29;;;;;;;11.10;6.75;;;;;;;2.48;100.00;98060.19;5138349;28;20047;-65
2023/10/29 07:36:55;;;;;;;10.85;6.35;;;;;;;2.53;100.00;98048.31;5138064;28;20059;-65
2023/10/29 07:39:21;;;;;;;13.07;6.45;;;;;;;2.48;100.00;98041.25;5138199;28;20043;-64
2023/10/29 07:41:47;;;;;;;13.52;6.57;;;;;;;2.21;100.00;98067.03;5137900;28;20138;-65
2023/10/29 07:44:13;;;;;;;10.55;6.22;;;;;;;2.42;100.00;98044.50;5138204;28;20047;-65
2023/10/29 07:46:40;;;;;;;9.85;5.55;;;;;;;2.12;100.00;97990.63;5137809;28;20104;-64
2023/10/29 07:49:06;;;;;;;8.30;5.00;;;;;;;2.03;100.00;97957.50;5138218;28;20082;-65
2023/10/29 07:51:32;;;;;;;8.18;5.15;;;;;;;2.31;100.00;97914.34;5137632;28;20107;-65
2023/10/29 07:53:58;;;;;;;6.53;4.55;;;;;;;2.29;100.00;97871.41;5137843;28;20100;-65
2023/10/29 07:56:24;;;;;;;8.02;4.78;;;;;;;2.47;100.00;97822.47;5137894;28;20142;-65
2023/10/29 07:58:51;;;;;;;7.68;4.72;;;;;;;2.08;100.00;97778.88;5137568;28;20433;-65
2023/10/29 08:01:18;;;;;;;9.88;4.18;;;;;;;2.17;100.00;97763.31;5137612;28;20055;-65
2023/10/29 08:03:46;;;;;;;7.47;4.45;;;;;;;1.93;100.00;97763.38;5137698;28;20150;-65
2023/10/29 08:06:12;;;;;;;6.68;4.50;;;;;;;1.90;100.00;97767.56;5137895;28;20047;-65
2023/10/29 08:08:39;;;;;;;6.55;3.85;;;;;;;2.26;100.00;97782.84;5137360;27;20047;-65
2023/10/29 08:11:05;;;;;;;6.90;4.55;;;;;;;2.19;100.00;97782.66;5137767;28;20083;-65
2023/10/29 08:13:31;;;;;;;8.98;4.60;;;;;;;1.90;100.00;97818.91;5137469;28;20047;-65
2023/10/29 08:15:58;;;;;;;9.13;4.97;;;;;;;2.03;100.00;97806.94;5137817;28;20497;-65
2023/10/29 08:18:24;;;;;;;5.38;4.05;;;;;;;1.72;100.00;97804.06;5137368;28;20043;-64
2023/10/29 08:20:51;;;;;;;7.68;4.82;;;;;;;1.77;100.00;97780.31;5137740;28;20381;-65
2023/10/29 08:23:17;;;;;;;7.47;4.75;;;;;;;1.91;100.00;97779.94;5137462;28;20142;-65
2023/10/29 08:25:42;;;;;;;10.07;4.63;;;;;;;2.11;100.00;97783.59;5137358;28;20519;-64
2023/10/29 08:28:08;;;;;;;4.88;3.83;;;;;;;2.29;100.00;97793.00;5137534;28;20079;-64
2023/10/29 08:30:34;;;;;;;5.57;4.30;;;;;;;2.41;100.00;97789.47;5137061;28;20062;-65
2023/10/29 08:33:00;;;;;;;7.75;5.07;;;;;;;2.20;100.00;97808.59;5137457;28;20051;-64
2023/10/29 08:35:26;;;;;;;5.47;4.18;;;;;;;2.15;100.00;97814.22;5137359;28;20070;-65
2023/10/29 08:37:53;;;;;;;7.95;4.22;;;;;;;2.33;100.00;97801.19;5137505;28;20051;-65
2023/10/29 08:40:19;;;;;;;7.18;4.68;;;;;;;2.39;100.00;97804.47;5136937;28;20195;-65
2023/10/29 08:42:45;;;;;;;7.20;4.82;;;;;;;2.44;100.00;97798.81;5137403;28;20054;-65
2023/10/29 08:45:12;;;;;;;8.43;4.93;;;;;;;2.62;100.00;97815.53;5137019;28;20085;-65
2023/10/29 08:47:39;;;;;;;8.48;4.80;;;;;;;2.54;100.00;97814.56;5137305;28;20043;-65
2023/10/29 08:50:06;;;;;;;8.05;5.20;;;;;;;2.19;100.00;97817.81;5136726;28;20382;-65
2023/10/29 08:52:32;;;;;;;7.93;5.28;;;;;;;2.44;100.00;97807.72;5137077;28;20289;-64
2023/10/29 08:54:58;;;;;;;8.75;5.05;;;;;;;2.29;100.00;97814.63;5137116;28;20096;-64
2023/10/29 08:57:24;;;;;;;6.72;4.32;;;;;;;2.41;100.00;97811.09;5137025;28;20143;-64
2023/10/29 08:59:50;;;;;;;8.10;5.28;;;;;;;2.24;100.00;97817.59;5136925;28;20047;-65
2023/10/29 09:02:16;;;;;;;7.80;4.90;;;;;;;2.27;100.00;97821.53;5136825;28;20133;-65
2023/10/29 09:04:42;;;;;;;8.70;4.65;;;;;;;2.33;100.00;97836.34;5136983;28;20050;-65
2023/10/29 09:07:08;;;;;;;7.53;4.30;;;;;;;2.30;100.00;97834.34;5136812;28;20047;-65
2023/10/29 09:09:35;;;;;;;6.43;4.40;;;;;;;2.25;100.00;97832.66;5137010;28;20051;-65
2023/10/29 09:12:02;;;;;;;7.05;5.22;;;;;;;2.34;100.00;97832.53;5136634;28;20049;-64
2023/10/29 09:14:28;;;;;;;8.07;4.75;;;;;;;2.63;100.00;97834.09;5137072;28;20138;-64
2023/10/29 09:16:54;;;;;;;6.43;4.38;;;;;;;1.67;100.00;97826.69;5136484;28;20043;-65
2023/10/29 09:19:20;;;;;;;10.18;5.60;;;;;;;2.04;100.00;97826.66;5136926;27;20397;-65
2023/10/29 09:21:47;;;;;;;9.90;4.97;;;;;;;2.22;100.00;97825.25;5139952;28;20139;-65
2023/10/29 09:24:13;;;;;;;11.00;5.53;;;;;;;2.48;100.00;97829.44;5140053;28;20481;-65
2023/10/29 09:26:40;;;;;;;8.07;5.47;;;;;;;2.74;100.00;97827.09;5140170;28;20043;-65
2023/10/29 09:29:07;;;;;;;11.40;5.68;;;;;;;2.42;100.00;97853.25;5140203;28;20075;-65
2023/10/29 09:31:33;;;;;;;10.38;5.90;;;;;;;2.29;100.00;97827.38;5140030;28;20333;-65
2023/10/29 09:34:00;;;;;;;10.75;5.57;;;;;;;2.55;100.00;97830.44;5139890;28;20051;-65
2023/10/29 09:36:27;;;;;;;9.82;6.40;;;;;;;2.53;100.00;97821.06;5140240;28;20047;-65
2023/10/29 09:38:52;;;;;;;7.75;5.50;;;;;;;2.22;100.00;97817.13;5139896;28;20415;-64
2023/10/29 09:41:18;;;;;;;14.55;7.40;;;;;;;2.46;100.00;97812.75;5140094;28;20071;-65
2023/10/29 09:43:46;;;;;;;13.13;6.88;;;;;;;2.44;100.00;97810.41;5139976;28;20103;-65
2023/10/29 09:46:13;;;;;;;11.82;7.68;;;;;;;2.64;100.00;97819.47;5140175;28;20047;-65
2023/10/29 09:48:40;;;;;;;11.68;7.35;;;;;;;2.35;100.00;97817.88;5139774;28;20047;-65
2023/10/29 09:51:06;;;;;;;12.40;7.03;;;;;;;2.72;100.00;97820.44;5139807;28;20061;-65
2023/10/29 09:53:34;;;;;;;12.63;7.10;;;;;;;2.39;100.00;97828.81;5139819;28;20058;-65
2023/10/29 09:56:00;;;;;;;11.85;6.78;;;;;;;2.38;100.00;97830.72;5139483;28;20055;-64
2023/10/29 09:58:27;;;;;;;12.40;6.93;;;;;;;2.61;100.00;97830.19;5139859;28;20062;-65
2023/10/29 10:00:53;;;;;;;11.13;6.38;;;;;;;2.54;100.00;97839.69;5139661;28;20047;-65
2023/10/29 10:03:20;;;;;;;12.27;6.57;;;;;;;2.53;100.00;97842.72;5139877;28;20137;-65
2023/10/29 10:05:46;;;;;;;10.85;6.30;;;;;;;2.64;100.00;97837.63;5139333;28;20047;-65
2023/10/29 10:08:12;;;;;;;8.18;5.43;;;;;;;2.45;100.00;97827.44;5139789;28;20043;-64
2023/10/29 10:10:40;;;;;;;15.57;7.25;;;;;;;2.68;100.00;97825.75;5139209;28;20055;-65
2023/10/29 10:13:06;;;;;;;11.60;7.07;;;;;;;2.44;100.00;97823.16;5139638;28;20146;-65
2023/10/29 10:15:32;;;;;;;16.02;6.72;;;;;;;2.59;100.00;97827.81;5139170;28;20438;-64
2023/10/29 10:18:00;;;;;;;12.20;6.53;;;;;;;2.55;100.00;97818.81;5139490;28;20138;-65
2023/10/29 10:20:28;;;;;;;8.60;5.80;;;;;;;2.67;100.00;97818.00;5139460;28;20138;-65
2023/10/29 10:22:57;;;;;;;8.90;5.70;;;;;;;2.45;100.00;97822.81;5139410;28;20101;-65
2023/10/29 10:25:24;;;;;;;12.73;6.80;;;;;;;2.88;100.00;97815.84;5139486;28;20134;-65
2023/10/29 10:27:51;;;;;;;11.50;7.10;;;;;;;2.54;100.00;97828.09;5139064;28;20425;-66
2023/10/29 10:30:28;;;;;;;9.68;6.32;;;;;;;2.52;100.00;97825.69;5139362;28;20047;-65
2023/10/29 10:33:07;;;;;;;11.52;7.82;;;;;;;2.37;100.00;97818.34;5137704;27;20130;-65
2023/10/29 10:35:40;;;;;;;22.08;7.93;;;;;;;2.69;100.00;97826.53;5139144;28;20146;-65
2023/10/29 10:38:06;;;;;;;13.30;6.75;;;;;;;2.66;100.00;97832.63;5138883;28;20495;-65
2023/10/29 10:40:32;;;;;;;11.48;7.10;;;;;;;2.44;100.00;97823.94;5138707;28;20051;-65
2023/10/29 10:42:57;;;;;;;12.88;6.82;;;;;;;2.62;100.00;97823.66;5138872;28;20192;-65
2023/10/29 10:45:27;;;;;;;11.10;7.22;;;;;;;2.66;100.00;97832.63;5139002;28;20116;-65
2023/10/29 10:47:58;;;;;;;11.50;6.65;;;;;;;2.56;100.00;97836.63;5139076;28;20127;-65
2023/10/29 10:50:25;;;;;;;17.52;7.95;;;;;;;2.59;100.00;97842.13;5138823;28;20158;-64
2023/10/29 10:52:52;;;;;;;13.40;6.57;;;;;;;2.45;100.00;97847.16;5138882;28;20433;-65
2023/10/29 10:55:18;;;;;;;13.70;6.72;;;;;;;2.54;100.00;97849.72;5138746;28;20085;-64
2023/10/29 10:57:44;;;;;;;11.50;6.13;;;;;;;2.85;100.00;97848.25;5139019;28;20138;-65
2023/10/29 11:00:12;;;;;;;9.88;6.38;;;;;;;2.63;100.00;97852.28;5138559;28;20448;-65
2023/10/29 11:02:39;;;;;;;13.23;7.47;;;;;;;2.78;100.00;97844.19;5139032;28;20078;-65
2023/10/29 11:05:05;;;;;;;15.23;7.60;;;;;;;2.93;100.00;97844.56;5138493;28;20340;-65
2023/10/29 11:07:32;;;;;;;10.63;6.38;;;;;;;3.14;100.00;97842.44;5138692;28;20185;-65
2023/10/29 11:09:59;;;;;;;10.40;5.93;;;;;;;3.00;100.00;97847.47;5138565;28;20051;-65
2023/10/29 11:12:26;;;;;;;11.20;6.28;;;;;;;2.89;100.00;97852.59;5138456;28;20055;-65
2023/10/29 11:15:14;;;;;;;12.82;6.68;;;;;;;2.72;100.00;97848.28;5138688;28;20134;-65
2023/10/29 11:17:50;;;;;;;10.98;6.13;;;;;;;2.64;100.00;97838.41;5138442;28;20134;-65
2023/10/29 11:20:49;;;;;;;10.50;6.57;;;;;;;2.67;100.00;97839.66;5138572;28;20408;-64
2023/10/29 11:23:16;;;;;;;8.57;5.95;;;;;;;2.42;100.00;97833.53;5138127;28;20464;-65
2023/10/29 11:25:43;;;;;;;12.98;7.25;;;;;;;2.68;100.00;97835.81;5138342;28;20054;-65